sensor_id;sensor_type;location;lat;lon;timestamp;P1;durP1;ratioP1;P2;durP2;ratioP2
11414;SDS011;5763;42.714;23.244;2023-06-14T00:01:49;3.38;;;3.08;;
11414;SDS011;5763;42.714;23.244;2023-06-14T00:04:16;3.95;;;3.35;;
11414;SDS011;5763;42.714;23.244;2023-06-14T00:06:43;5.57;;;3.90;;
11414;SDS011;5763;42.714;23.244;2023-06-14T00:09:11;3.85;;;3.45;;
11414;SDS011;5763;42.714;23.244;2023-06-14T00:11:40;3.80;;;3.30;;
11414;SDS011;5763;42.714;23.244;2023-06-14T00:14:07;4.00;;;3.58;;
11414;SDS011;5763;42.714;23.244;2023-06-14T00:16:34;4.03;;;3.72;;
11414;SDS011;5763;42.714;23.244;2023-06-14T00:19:02;5.00;;;3.30;;
11414;SDS011;5763;42.714;23.244;2023-06-14T00:21:29;4.18;;;3.53;;
11414;SDS011;5763;42.714;23.244;2023-06-14T00:23:57;4.97;;;3.40;;
11414;SDS011;5763;42.714;23.244;2023-06-14T00:26:24;3.40;;;3.10;;
11414;SDS011;5763;42.714;23.244;2023-06-14T00:28:53;3.85;;;3.55;;
11414;SDS011;5763;42.714;23.244;2023-06-14T00:31:21;4.00;;;3.47;;
11414;SDS011;5763;42.714;23.244;2023-06-14T00:33:48;3.80;;;3.50;;
11414;SDS011;5763;42.714;23.244;2023-06-14T00:36:15;5.47;;;3.42;;
11414;SDS011;5763;42.714;23.244;2023-06-14T00:38:42;5.45;;;3.25;;
11414;SDS011;5763;42.714;23.244;2023-06-14T00:41:08;3.35;;;3.08;;
11414;SDS011;5763;42.714;23.244;2023-06-14T00:43:35;3.72;;;3.42;;
11414;SDS011;5763;42.714;23.244;2023-06-14T00:46:03;3.88;;;3.47;;
11414;SDS011;5763;42.714;23.244;2023-06-14T00:48:30;4.88;;;3.35;;
11414;SDS011;5763;42.714;23.244;2023-06-14T00:50:57;4.35;;;3.95;;
11414;SDS011;5763;42.714;23.244;2023-06-14T00:53:29;5.10;;;3.55;;
11414;SDS011;5763;42.714;23.244;2023-06-14T00:55:58;4.72;;;3.35;;
11414;SDS011;5763;42.714;23.244;2023-06-14T00:58:26;5.07;;;3.85;;
11414;SDS011;5763;42.714;23.244;2023-06-14T01:00:53;3.85;;;3.22;;
11414;SDS011;5763;42.714;23.244;2023-06-14T01:03:22;5.47;;;3.38;;
11414;SDS011;5763;42.714;23.244;2023-06-14T01:05:50;5.32;;;3.63;;
11414;SDS011;5763;42.714;23.244;2023-06-14T01:08:40;4.40;;;3.28;;
11414;SDS011;5763;42.714;23.244;2023-06-14T01:11:16;4.20;;;3.80;;
11414;SDS011;5763;42.714;23.244;2023-06-14T01:13:47;4.05;;;3.72;;
11414;SDS011;5763;42.714;23.244;2023-06-14T01:16:15;3.85;;;3.55;;
11414;SDS011;5763;42.714;23.244;2023-06-14T01:18:45;4.03;;;3.60;;
11414;SDS011;5763;42.714;23.244;2023-06-14T01:21:20;4.13;;;3.72;;
11414;SDS011;5763;42.714;23.244;2023-06-14T01:23:48;4.60;;;4.20;;
11414;SDS011;5763;42.714;23.244;2023-06-14T01:26:18;4.50;;;3.47;;
11414;SDS011;5763;42.714;23.244;2023-06-14T01:28:45;3.97;;;3.65;;
11414;SDS011;5763;42.714;23.244;2023-06-14T01:31:15;4.15;;;3.75;;
11414;SDS011;5763;42.714;23.244;2023-06-14T01:33:43;4.95;;;3.42;;
11414;SDS011;5763;42.714;23.244;2023-06-14T01:36:12;5.35;;;3.63;;
11414;SDS011;5763;42.714;23.244;2023-06-14T01:38:39;4.10;;;3.70;;
11414;SDS011;5763;42.714;23.244;2023-06-14T01:41:09;4.88;;;3.88;;
11414;SDS011;5763;42.714;23.244;2023-06-14T01:43:37;5.32;;;3.75;;
11414;SDS011;5763;42.714;23.244;2023-06-14T01:46:05;4.78;;;4.38;;
11414;SDS011;5763;42.714;23.244;2023-06-14T01:48:34;6.28;;;4.60;;
11414;SDS011;5763;42.714;23.244;2023-06-14T01:51:01;4.82;;;4.35;;
11414;SDS011;5763;42.714;23.244;2023-06-14T01:53:28;5.55;;;4.55;;
11414;SDS011;5763;42.714;23.244;2023-06-14T01:55:54;5.07;;;4.57;;
11414;SDS011;5763;42.714;23.244;2023-06-14T01:58:22;6.05;;;4.22;;
11414;SDS011;5763;42.714;23.244;2023-06-14T02:26:38;7.97;;;5.13;;
11414;SDS011;5763;42.714;23.244;2023-06-14T02:29:06;5.53;;;4.90;;
11414;SDS011;5763;42.714;23.244;2023-06-14T02:31:35;4.57;;;4.25;;
11414;SDS011;5763;42.714;23.244;2023-06-14T02:34:02;5.22;;;4.72;;
11414;SDS011;5763;42.714;23.244;2023-06-14T02:36:29;5.30;;;4.80;;
11414;SDS011;5763;42.714;23.244;2023-06-14T02:38:56;4.82;;;4.35;;
11414;SDS011;5763;42.714;23.244;2023-06-14T02:41:23;4.30;;;3.90;;
11414;SDS011;5763;42.714;23.244;2023-06-14T02:43:52;5.15;;;4.40;;
11414;SDS011;5763;42.714;23.244;2023-06-14T02:46:21;4.90;;;4.40;;
11414;SDS011;5763;42.714;23.244;2023-06-14T02:48:47;4.93;;;4.40;;
11414;SDS011;5763;42.714;23.244;2023-06-14T02:51:14;4.72;;;4.20;;
11414;SDS011;5763;42.714;23.244;2023-06-14T02:53:41;5.30;;;4.57;;
11414;SDS011;5763;42.714;23.244;2023-06-14T02:56:08;4.72;;;4.32;;
11414;SDS011;5763;42.714;23.244;2023-06-14T02:58:36;5.13;;;3.95;;
11414;SDS011;5763;42.714;23.244;2023-06-14T03:01:05;4.90;;;4.50;;
11414;SDS011;5763;42.714;23.244;2023-06-14T03:03:32;4.93;;;4.53;;
11414;SDS011;5763;42.714;23.244;2023-06-14T03:05:59;4.95;;;4.10;;
11414;SDS011;5763;42.714;23.244;2023-06-14T03:08:29;4.20;;;3.80;;
11414;SDS011;5763;42.714;23.244;2023-06-14T03:10:58;6.65;;;4.43;;
11414;SDS011;5763;42.714;23.244;2023-06-14T03:13:27;5.28;;;4.53;;
11414;SDS011;5763;42.714;23.244;2023-06-14T03:15:57;5.55;;;4.45;;
11414;SDS011;5763;42.714;23.244;2023-06-14T03:18:27;5.15;;;4.30;;
11414;SDS011;5763;42.714;23.244;2023-06-14T03:20:54;4.72;;;4.32;;
11414;SDS011;5763;42.714;23.244;2023-06-14T03:23:22;4.80;;;4.40;;
11414;SDS011;5763;42.714;23.244;2023-06-14T03:25:49;4.97;;;4.50;;
11414;SDS011;5763;42.714;23.244;2023-06-14T03:28:16;4.75;;;4.30;;
11414;SDS011;5763;42.714;23.244;2023-06-14T03:30:43;4.40;;;4.00;;
11414;SDS011;5763;42.714;23.244;2023-06-14T03:33:09;4.85;;;4.45;;
11414;SDS011;5763;42.714;23.244;2023-06-14T03:35:38;5.70;;;4.40;;
11414;SDS011;5763;42.714;23.244;2023-06-14T03:38:04;5.15;;;4.65;;
11414;SDS011;5763;42.714;23.244;2023-06-14T03:40:31;6.03;;;5.00;;
11414;SDS011;5763;42.714;23.244;2023-06-14T03:42:58;6.40;;;4.97;;
11414;SDS011;5763;42.714;23.244;2023-06-14T03:45:25;6.60;;;4.60;;
11414;SDS011;5763;42.714;23.244;2023-06-14T03:47:51;4.93;;;4.47;;
11414;SDS011;5763;42.714;23.244;2023-06-14T03:50:19;4.82;;;4.40;;
11414;SDS011;5763;42.714;23.244;2023-06-14T03:52:48;5.60;;;4.30;;
11414;SDS011;5763;42.714;23.244;2023-06-14T03:55:15;5.82;;;4.10;;
11414;SDS011;5763;42.714;23.244;2023-06-14T03:57:42;4.60;;;4.20;;
11414;SDS011;5763;42.714;23.244;2023-06-14T04:00:10;6.32;;;4.88;;
11414;SDS011;5763;42.714;23.244;2023-06-14T04:02:37;4.35;;;3.95;;
11414;SDS011;5763;42.714;23.244;2023-06-14T04:05:05;6.53;;;3.70;;
11414;SDS011;5763;42.714;23.244;2023-06-14T04:07:34;5.50;;;4.00;;
11414;SDS011;5763;42.714;23.244;2023-06-14T04:10:11;7.18;;;3.92;;
11414;SDS011;5763;42.714;23.244;2023-06-14T04:12:38;4.15;;;3.75;;
11414;SDS011;5763;42.714;23.244;2023-06-14T04:15:06;4.13;;;3.80;;
11414;SDS011;5763;42.714;23.244;2023-06-14T04:17:33;6.32;;;3.70;;
11414;SDS011;5763;42.714;23.244;2023-06-14T04:20:01;5.75;;;4.13;;
11414;SDS011;5763;42.714;23.244;2023-06-14T04:22:29;4.78;;;4.00;;
11414;SDS011;5763;42.714;23.244;2023-06-14T04:24:56;4.78;;;4.38;;
11414;SDS011;5763;42.714;23.244;2023-06-14T04:27:25;4.85;;;4.10;;
11414;SDS011;5763;42.714;23.244;2023-06-14T04:29:53;4.43;;;4.03;;
11414;SDS011;5763;42.714;23.244;2023-06-14T04:32:23;6.05;;;4.18;;
11414;SDS011;5763;42.714;23.244;2023-06-14T04:34:52;5.07;;;3.95;;
11414;SDS011;5763;42.714;23.244;2023-06-14T04:37:19;4.57;;;4.18;;
11414;SDS011;5763;42.714;23.244;2023-06-14T04:39:47;5.30;;;4.10;;
11414;SDS011;5763;42.714;23.244;2023-06-14T04:42:14;5.45;;;4.07;;
11414;SDS011;5763;42.714;23.244;2023-06-14T04:44:43;5.18;;;4.20;;
11414;SDS011;5763;42.714;23.244;2023-06-14T04:47:10;4.30;;;3.90;;
11414;SDS011;5763;42.714;23.244;2023-06-14T04:49:37;4.65;;;4.25;;
11414;SDS011;5763;42.714;23.244;2023-06-14T04:52:05;5.25;;;4.65;;
11414;SDS011;5763;42.714;23.244;2023-06-14T04:54:35;6.47;;;4.32;;
11414;SDS011;5763;42.714;23.244;2023-06-14T04:57:02;6.00;;;4.72;;
11414;SDS011;5763;42.714;23.244;2023-06-14T04:59:31;6.00;;;4.90;;
11414;SDS011;5763;42.714;23.244;2023-06-14T05:01:59;6.10;;;4.80;;
11414;SDS011;5763;42.714;23.244;2023-06-14T05:04:26;5.22;;;4.72;;
11414;SDS011;5763;42.714;23.244;2023-06-14T05:06:54;5.35;;;4.85;;
11414;SDS011;5763;42.714;23.244;2023-06-14T05:09:20;5.07;;;4.57;;
11414;SDS011;5763;42.714;23.244;2023-06-14T05:11:48;5.00;;;4.50;;
11414;SDS011;5763;42.714;23.244;2023-06-14T05:14:15;5.50;;;4.70;;
11414;SDS011;5763;42.714;23.244;2023-06-14T05:16:42;5.63;;;4.55;;
11414;SDS011;5763;42.714;23.244;2023-06-14T05:19:10;5.95;;;5.07;;
11414;SDS011;5763;42.714;23.244;2023-06-14T05:21:37;7.05;;;5.10;;
11414;SDS011;5763;42.714;23.244;2023-06-14T05:24:04;6.80;;;5.22;;
11414;SDS011;5763;42.714;23.244;2023-06-14T05:26:31;7.18;;;5.97;;
11414;SDS011;5763;42.714;23.244;2023-06-14T05:28:58;6.60;;;5.90;;
11414;SDS011;5763;42.714;23.244;2023-06-14T05:31:26;6.75;;;6.15;;
11414;SDS011;5763;42.714;23.244;2023-06-14T05:33:53;7.78;;;6.43;;
11414;SDS011;5763;42.714;23.244;2023-06-14T05:36:22;6.95;;;6.35;;
11414;SDS011;5763;42.714;23.244;2023-06-14T05:38:49;7.10;;;6.38;;
11414;SDS011;5763;42.714;23.244;2023-06-14T05:41:22;7.07;;;5.78;;
11414;SDS011;5763;42.714;23.244;2023-06-14T05:43:49;7.20;;;6.40;;
11414;SDS011;5763;42.714;23.244;2023-06-14T05:46:16;6.45;;;5.78;;
11414;SDS011;5763;42.714;23.244;2023-06-14T05:48:47;6.53;;;5.88;;
11414;SDS011;5763;42.714;23.244;2023-06-14T05:51:13;6.75;;;6.13;;
11414;SDS011;5763;42.714;23.244;2023-06-14T05:53:45;6.82;;;6.13;;
11414;SDS011;5763;42.714;23.244;2023-06-14T05:56:12;6.10;;;5.50;;
11414;SDS011;5763;42.714;23.244;2023-06-14T05:58:39;8.82;;;6.38;;
11414;SDS011;5763;42.714;23.244;2023-06-14T06:16:36;7.65;;;6.40;;
11414;SDS011;5763;42.714;23.244;2023-06-14T06:19:03;6.93;;;6.22;;
11414;SDS011;5763;42.714;23.244;2023-06-14T06:21:30;6.38;;;5.70;;
11414;SDS011;5763;42.714;23.244;2023-06-14T06:23:57;6.90;;;6.20;;
11414;SDS011;5763;42.714;23.244;2023-06-14T06:26:23;6.85;;;6.15;;
11414;SDS011;5763;42.714;23.244;2023-06-14T06:28:51;6.68;;;6.15;;
11414;SDS011;5763;42.714;23.244;2023-06-14T06:31:18;6.90;;;6.20;;
11414;SDS011;5763;42.714;23.244;2023-06-14T06:33:46;7.07;;;6.40;;
11414;SDS011;5763;42.714;23.244;2023-06-14T06:36:13;6.78;;;6.18;;
11414;SDS011;5763;42.714;23.244;2023-06-14T06:38:40;8.13;;;6.18;;
11414;SDS011;5763;42.714;23.244;2023-06-14T06:41:07;7.32;;;6.57;;
11414;SDS011;5763;42.714;23.244;2023-06-14T06:43:34;7.40;;;6.35;;
11414;SDS011;5763;42.714;23.244;2023-06-14T06:46:00;7.10;;;6.05;;
11414;SDS011;5763;42.714;23.244;2023-06-14T06:48:27;9.48;;;6.40;;
11414;SDS011;5763;42.714;23.244;2023-06-14T06:50:56;7.95;;;7.15;;
11414;SDS011;5763;42.714;23.244;2023-06-14T06:53:23;7.32;;;6.63;;
11414;SDS011;5763;42.714;23.244;2023-06-14T06:55:49;7.70;;;7.00;;
11414;SDS011;5763;42.714;23.244;2023-06-14T06:58:17;8.38;;;7.22;;
11414;SDS011;5763;42.714;23.244;2023-06-14T07:00:43;7.90;;;7.07;;
11414;SDS011;5763;42.714;23.244;2023-06-14T07:03:11;9.93;;;7.47;;
11414;SDS011;5763;42.714;23.244;2023-06-14T07:05:38;8.98;;;7.90;;
11414;SDS011;5763;42.714;23.244;2023-06-14T07:08:06;9.52;;;7.95;;
11414;SDS011;5763;42.714;23.244;2023-06-14T07:10:33;8.73;;;7.75;;
11414;SDS011;5763;42.714;23.244;2023-06-14T07:12:59;8.98;;;7.68;;
11414;SDS011;5763;42.714;23.244;2023-06-14T07:15:26;10.32;;;8.23;;
11414;SDS011;5763;42.714;23.244;2023-06-14T07:17:53;8.27;;;7.47;;
11414;SDS011;5763;42.714;23.244;2023-06-14T07:20:24;8.40;;;7.22;;
11414;SDS011;5763;42.714;23.244;2023-06-14T07:22:51;10.10;;;8.63;;
11414;SDS011;5763;42.714;23.244;2023-06-14T07:25:19;9.90;;;8.70;;
11414;SDS011;5763;42.714;23.244;2023-06-14T07:27:47;10.70;;;9.02;;
11414;SDS011;5763;42.714;23.244;2023-06-14T07:30:14;10.43;;;9.43;;
11414;SDS011;5763;42.714;23.244;2023-06-14T07:32:41;10.07;;;8.90;;
11414;SDS011;5763;42.714;23.244;2023-06-14T07:35:08;10.15;;;8.10;;
11414;SDS011;5763;42.714;23.244;2023-06-14T07:37:35;9.32;;;8.43;;
11414;SDS011;5763;42.714;23.244;2023-06-14T07:40:02;10.23;;;9.27;;
11414;SDS011;5763;42.714;23.244;2023-06-14T07:42:33;9.88;;;8.93;;
11414;SDS011;5763;42.714;23.244;2023-06-14T07:45:01;11.15;;;9.93;;
11414;SDS011;5763;42.714;23.244;2023-06-14T07:47:28;10.40;;;8.85;;
11414;SDS011;5763;42.714;23.244;2023-06-14T07:49:55;9.57;;;8.57;;
11414;SDS011;5763;42.714;23.244;2023-06-14T07:52:21;10.18;;;9.00;;
11414;SDS011;5763;42.714;23.244;2023-06-14T07:54:48;10.77;;;9.23;;
11414;SDS011;5763;42.714;23.244;2023-06-14T07:57:15;10.82;;;9.73;;
11414;SDS011;5763;42.714;23.244;2023-06-14T07:59:43;9.55;;;8.55;;
11414;SDS011;5763;42.714;23.244;2023-06-14T08:02:10;10.63;;;9.63;;
11414;SDS011;5763;42.714;23.244;2023-06-14T08:04:37;10.57;;;9.57;;
11414;SDS011;5763;42.714;23.244;2023-06-14T08:07:04;11.20;;;10.20;;
11414;SDS011;5763;42.714;23.244;2023-06-14T08:09:31;14.73;;;11.50;;
11414;SDS011;5763;42.714;23.244;2023-06-14T08:11:57;11.88;;;10.68;;
11414;SDS011;5763;42.714;23.244;2023-06-14T08:14:25;11.98;;;10.77;;
11414;SDS011;5763;42.714;23.244;2023-06-14T08:16:53;11.85;;;10.65;;
11414;SDS011;5763;42.714;23.244;2023-06-14T08:19:20;11.27;;;10.02;;
11414;SDS011;5763;42.714;23.244;2023-06-14T08:21:47;11.63;;;10.10;;
11414;SDS011;5763;42.714;23.244;2023-06-14T08:24:14;11.05;;;9.95;;
11414;SDS011;5763;42.714;23.244;2023-06-14T08:26:41;10.90;;;9.82;;
11414;SDS011;5763;42.714;23.244;2023-06-14T08:29:07;11.30;;;10.20;;
11414;SDS011;5763;42.714;23.244;2023-06-14T08:31:34;11.23;;;10.23;;
11414;SDS011;5763;42.714;23.244;2023-06-14T08:34:02;11.07;;;10.00;;
11414;SDS011;5763;42.714;23.244;2023-06-14T08:36:29;13.32;;;10.27;;
11414;SDS011;5763;42.714;23.244;2023-06-14T08:38:56;11.75;;;10.60;;
11414;SDS011;5763;42.714;23.244;2023-06-14T08:41:23;11.02;;;9.60;;
11414;SDS011;5763;42.714;23.244;2023-06-14T08:43:50;13.48;;;10.50;;
11414;SDS011;5763;42.714;23.244;2023-06-14T08:46:17;11.63;;;10.48;;
11414;SDS011;5763;42.714;23.244;2023-06-14T08:48:46;10.77;;;9.70;;
11414;SDS011;5763;42.714;23.244;2023-06-14T08:51:16;10.00;;;9.00;;
11414;SDS011;5763;42.714;23.244;2023-06-14T08:53:47;12.30;;;9.88;;
11414;SDS011;5763;42.714;23.244;2023-06-14T08:56:18;11.77;;;9.73;;
11414;SDS011;5763;42.714;23.244;2023-06-14T08:58:47;12.00;;;9.52;;
11414;SDS011;5763;42.714;23.244;2023-06-14T09:01:15;11.05;;;9.80;;
11414;SDS011;5763;42.714;23.244;2023-06-14T09:03:42;11.63;;;10.50;;
11414;SDS011;5763;42.714;23.244;2023-06-14T09:06:10;11.13;;;10.13;;
11414;SDS011;5763;42.714;23.244;2023-06-14T09:08:43;11.07;;;10.00;;
11414;SDS011;5763;42.714;23.244;2023-06-14T09:11:11;12.07;;;9.60;;
11414;SDS011;5763;42.714;23.244;2023-06-14T09:13:39;12.20;;;10.52;;
11414;SDS011;5763;42.714;23.244;2023-06-14T09:16:07;11.68;;;10.50;;
11414;SDS011;5763;42.714;23.244;2023-06-14T09:18:34;11.43;;;10.23;;
11414;SDS011;5763;42.714;23.244;2023-06-14T09:21:02;10.65;;;9.65;;
11414;SDS011;5763;42.714;23.244;2023-06-14T09:23:29;10.85;;;9.73;;
11414;SDS011;5763;42.714;23.244;2023-06-14T09:25:57;11.18;;;9.50;;
11414;SDS011;5763;42.714;23.244;2023-06-14T09:28:26;9.73;;;8.82;;
11414;SDS011;5763;42.714;23.244;2023-06-14T09:30:53;10.38;;;9.23;;
11414;SDS011;5763;42.714;23.244;2023-06-14T09:33:21;10.60;;;9.50;;
11414;SDS011;5763;42.714;23.244;2023-06-14T09:35:50;10.27;;;9.38;;
11414;SDS011;5763;42.714;23.244;2023-06-14T09:38:18;10.55;;;8.48;;
11414;SDS011;5763;42.714;23.244;2023-06-14T09:40:45;11.13;;;9.85;;
11414;SDS011;5763;42.714;23.244;2023-06-14T09:43:13;11.32;;;10.25;;
11414;SDS011;5763;42.714;23.244;2023-06-14T09:45:40;9.40;;;8.55;;
11414;SDS011;5763;42.714;23.244;2023-06-14T09:48:11;10.32;;;9.30;;
11414;SDS011;5763;42.714;23.244;2023-06-14T09:50:42;9.68;;;8.80;;
11414;SDS011;5763;42.714;23.244;2023-06-14T09:53:11;9.75;;;8.77;;
11414;SDS011;5763;42.714;23.244;2023-06-14T09:55:40;11.05;;;9.93;;
11414;SDS011;5763;42.714;23.244;2023-06-14T09:58:08;10.20;;;8.90;;
11414;SDS011;5763;42.714;23.244;2023-06-14T10:00:39;10.07;;;9.07;;
11414;SDS011;5763;42.714;23.244;2023-06-14T10:03:12;10.45;;;9.02;;
11414;SDS011;5763;42.714;23.244;2023-06-14T10:05:41;11.50;;;10.32;;
11414;SDS011;5763;42.714;23.244;2023-06-14T10:08:11;9.98;;;9.00;;
11414;SDS011;5763;42.714;23.244;2023-06-14T10:10:41;11.40;;;8.80;;
11414;SDS011;5763;42.714;23.244;2023-06-14T10:13:09;10.43;;;9.43;;
11414;SDS011;5763;42.714;23.244;2023-06-14T10:15:41;8.88;;;8.05;;
11414;SDS011;5763;42.714;23.244;2023-06-14T10:18:17;10.57;;;9.48;;
11414;SDS011;5763;42.714;23.244;2023-06-14T10:20:52;10.10;;;9.10;;
11414;SDS011;5763;42.714;23.244;2023-06-14T10:23:24;10.15;;;9.25;;
11414;SDS011;5763;42.714;23.244;2023-06-14T10:25:55;9.80;;;8.90;;
11414;SDS011;5763;42.714;23.244;2023-06-14T10:28:25;10.80;;;9.73;;
11414;SDS011;5763;42.714;23.244;2023-06-14T10:31:09;10.18;;;9.20;;
11414;SDS011;5763;42.714;23.244;2023-06-14T10:33:39;9.70;;;8.65;;
11414;SDS011;5763;42.714;23.244;2023-06-14T10:36:26;9.23;;;8.40;;
11414;SDS011;5763;42.714;23.244;2023-06-14T10:38:56;10.10;;;9.10;;
11414;SDS011;5763;42.714;23.244;2023-06-14T10:41:25;10.60;;;9.52;;
11414;SDS011;5763;42.714;23.244;2023-06-14T10:44:04;10.48;;;9.48;;
11414;SDS011;5763;42.714;23.244;2023-06-14T10:46:59;8.88;;;8.05;;
11414;SDS011;5763;42.714;23.244;2023-06-14T10:49:36;10.05;;;9.07;;
11414;SDS011;5763;42.714;23.244;2023-06-14T10:52:10;9.75;;;8.80;;
11414;SDS011;5763;42.714;23.244;2023-06-14T10:54:55;9.98;;;8.93;;
11414;SDS011;5763;42.714;23.244;2023-06-14T10:57:34;9.90;;;8.93;;
11414;SDS011;5763;42.714;23.244;2023-06-14T11:00:03;9.35;;;8.52;;
11414;SDS011;5763;42.714;23.244;2023-06-14T11:02:51;9.90;;;9.05;;
11414;SDS011;5763;42.714;23.244;2023-06-14T11:05:48;10.00;;;9.02;;
11414;SDS011;5763;42.714;23.244;2023-06-14T11:11:17;10.93;;;8.65;;
11414;SDS011;5763;42.714;23.244;2023-06-14T11:13:45;10.07;;;9.15;;
11414;SDS011;5763;42.714;23.244;2023-06-14T11:16:12;9.73;;;8.80;;
11414;SDS011;5763;42.714;23.244;2023-06-14T11:18:42;8.88;;;8.07;;
11414;SDS011;5763;42.714;23.244;2023-06-14T11:21:10;11.15;;;9.80;;
11414;SDS011;5763;42.714;23.244;2023-06-14T11:23:37;10.88;;;9.60;;
11414;SDS011;5763;42.714;23.244;2023-06-14T11:26:04;9.40;;;8.50;;
11414;SDS011;5763;42.714;23.244;2023-06-14T11:28:38;9.70;;;8.80;;
11414;SDS011;5763;42.714;23.244;2023-06-14T11:31:06;10.18;;;9.18;;
11414;SDS011;5763;42.714;23.244;2023-06-14T11:33:33;10.30;;;9.38;;
11414;SDS011;5763;42.714;23.244;2023-06-14T11:36:03;10.10;;;9.10;;
11414;SDS011;5763;42.714;23.244;2023-06-14T11:38:34;10.25;;;9.25;;
11414;SDS011;5763;42.714;23.244;2023-06-14T11:41:02;11.32;;;10.20;;
11414;SDS011;5763;42.714;23.244;2023-06-14T11:43:29;10.40;;;9.48;;
11414;SDS011;5763;42.714;23.244;2023-06-14T11:45:58;10.98;;;9.88;;
11414;SDS011;5763;42.714;23.244;2023-06-14T11:48:35;9.38;;;8.38;;
11414;SDS011;5763;42.714;23.244;2023-06-14T11:51:03;10.05;;;8.68;;
11414;SDS011;5763;42.714;23.244;2023-06-14T11:53:30;9.77;;;8.85;;
11414;SDS011;5763;42.714;23.244;2023-06-14T11:55:57;9.00;;;8.20;;
11414;SDS011;5763;42.714;23.244;2023-06-14T11:58:25;10.13;;;8.80;;
11414;SDS011;5763;42.714;23.244;2023-06-14T12:00:52;9.45;;;8.57;;
11414;SDS011;5763;42.714;23.244;2023-06-14T12:03:22;9.40;;;8.50;;
11414;SDS011;5763;42.714;23.244;2023-06-14T12:05:50;8.75;;;7.88;;
11414;SDS011;5763;42.714;23.244;2023-06-14T12:08:21;8.85;;;7.97;;
11414;SDS011;5763;42.714;23.244;2023-06-14T12:10:58;8.70;;;7.85;;
11414;SDS011;5763;42.714;23.244;2023-06-14T12:13:25;7.85;;;7.15;;
11414;SDS011;5763;42.714;23.244;2023-06-14T12:15:55;8.02;;;7.30;;
11414;SDS011;5763;42.714;23.244;2023-06-14T12:18:30;7.85;;;7.07;;
11414;SDS011;5763;42.714;23.244;2023-06-14T12:20:58;8.05;;;7.35;;
11414;SDS011;5763;42.714;23.244;2023-06-14T12:23:39;8.77;;;6.50;;
11414;SDS011;5763;42.714;23.244;2023-06-14T12:26:11;9.80;;;7.60;;
11414;SDS011;5763;42.714;23.244;2023-06-14T12:28:40;8.60;;;7.28;;
11414;SDS011;5763;42.714;23.244;2023-06-14T12:31:07;7.30;;;6.70;;
11414;SDS011;5763;42.714;23.244;2023-06-14T12:33:34;7.43;;;6.72;;
11414;SDS011;5763;42.714;23.244;2023-06-14T12:36:02;7.70;;;7.00;;
11414;SDS011;5763;42.714;23.244;2023-06-14T12:38:30;7.80;;;6.95;;
11414;SDS011;5763;42.714;23.244;2023-06-14T12:40:58;7.78;;;7.05;;
11414;SDS011;5763;42.714;23.244;2023-06-14T12:43:25;7.28;;;6.68;;
11414;SDS011;5763;42.714;23.244;2023-06-14T12:45:52;7.53;;;6.82;;
11414;SDS011;5763;42.714;23.244;2023-06-14T12:48:19;7.80;;;7.20;;
11414;SDS011;5763;42.714;23.244;2023-06-14T12:50:47;7.68;;;6.97;;
11414;SDS011;5763;42.714;23.244;2023-06-14T12:53:14;7.22;;;6.63;;
11414;SDS011;5763;42.714;23.244;2023-06-14T12:55:41;7.15;;;6.45;;
11414;SDS011;5763;42.714;23.244;2023-06-14T12:58:09;7.25;;;6.55;;
11414;SDS011;5763;42.714;23.244;2023-06-14T13:00:37;7.45;;;6.78;;
11414;SDS011;5763;42.714;23.244;2023-06-14T13:03:04;7.72;;;7.03;;
11414;SDS011;5763;42.714;23.244;2023-06-14T13:05:31;9.35;;;7.47;;
11414;SDS011;5763;42.714;23.244;2023-06-14T13:07:58;8.10;;;6.53;;
11414;SDS011;5763;42.714;23.244;2023-06-14T13:10:25;7.03;;;6.43;;
11414;SDS011;5763;42.714;23.244;2023-06-14T13:12:52;6.93;;;6.22;;
11414;SDS011;5763;42.714;23.244;2023-06-14T13:15:20;7.43;;;6.63;;
11414;SDS011;5763;42.714;23.244;2023-06-14T13:17:47;7.28;;;6.55;;
11414;SDS011;5763;42.714;23.244;2023-06-14T13:20:14;6.13;;;5.53;;
11414;SDS011;5763;42.714;23.244;2023-06-14T13:22:41;6.35;;;5.78;;
11414;SDS011;5763;42.714;23.244;2023-06-14T13:25:08;8.02;;;6.18;;
11414;SDS011;5763;42.714;23.244;2023-06-14T13:27:35;6.32;;;5.72;;
11414;SDS011;5763;42.714;23.244;2023-06-14T13:30:02;6.10;;;5.50;;
11414;SDS011;5763;42.714;23.244;2023-06-14T13:32:31;6.20;;;5.70;;
11414;SDS011;5763;42.714;23.244;2023-06-14T13:34:58;6.90;;;6.22;;
11414;SDS011;5763;42.714;23.244;2023-06-14T13:37:25;6.18;;;5.68;;
11414;SDS011;5763;42.714;23.244;2023-06-14T13:39:52;7.80;;;6.03;;
11414;SDS011;5763;42.714;23.244;2023-06-14T13:42:19;6.45;;;5.85;;
11414;SDS011;5763;42.714;23.244;2023-06-14T13:44:46;5.45;;;4.95;;
11414;SDS011;5763;42.714;23.244;2023-06-14T13:47:13;5.78;;;5.15;;
11414;SDS011;5763;42.714;23.244;2023-06-14T13:49:41;5.70;;;5.20;;
11414;SDS011;5763;42.714;23.244;2023-06-14T13:52:08;5.63;;;4.82;;
11414;SDS011;5763;42.714;23.244;2023-06-14T13:54:35;5.97;;;5.32;;
11414;SDS011;5763;42.714;23.244;2023-06-14T13:57:02;5.75;;;5.25;;
11414;SDS011;5763;42.714;23.244;2023-06-14T13:59:29;6.47;;;5.78;;
11414;SDS011;5763;42.714;23.244;2023-06-14T14:01:56;6.32;;;5.72;;
11414;SDS011;5763;42.714;23.244;2023-06-14T14:04:22;6.53;;;5.95;;
11414;SDS011;5763;42.714;23.244;2023-06-14T14:06:51;6.20;;;5.60;;
11414;SDS011;5763;42.714;23.244;2023-06-14T14:09:17;5.95;;;5.35;;
11414;SDS011;5763;42.714;23.244;2023-06-14T14:11:44;6.88;;;5.30;;
11414;SDS011;5763;42.714;23.244;2023-06-14T14:14:11;6.50;;;5.93;;
11414;SDS011;5763;42.714;23.244;2023-06-14T14:16:38;5.88;;;5.28;;
11414;SDS011;5763;42.714;23.244;2023-06-14T14:19:04;7.18;;;5.57;;
11414;SDS011;5763;42.714;23.244;2023-06-14T14:21:31;6.90;;;6.30;;
11414;SDS011;5763;42.714;23.244;2023-06-14T14:23:59;7.25;;;6.55;;
11414;SDS011;5763;42.714;23.244;2023-06-14T14:26:26;8.82;;;6.35;;
11414;SDS011;5763;42.714;23.244;2023-06-14T14:28:53;6.70;;;6.10;;
11414;SDS011;5763;42.714;23.244;2023-06-14T14:31:19;7.05;;;6.45;;
11414;SDS011;5763;42.714;23.244;2023-06-14T14:33:46;7.35;;;6.65;;
11414;SDS011;5763;42.714;23.244;2023-06-14T14:36:13;7.75;;;6.68;;
11414;SDS011;5763;42.714;23.244;2023-06-14T14:38:40;7.75;;;7.05;;
11414;SDS011;5763;42.714;23.244;2023-06-14T14:41:08;7.22;;;6.57;;
11414;SDS011;5763;42.714;23.244;2023-06-14T14:43:35;6.40;;;5.80;;
11414;SDS011;5763;42.714;23.244;2023-06-14T14:46:02;6.03;;;5.43;;
11414;SDS011;5763;42.714;23.244;2023-06-14T14:48:29;6.72;;;6.13;;
11414;SDS011;5763;42.714;23.244;2023-06-14T14:50:56;7.07;;;6.35;;
11414;SDS011;5763;42.714;23.244;2023-06-14T14:53:23;8.25;;;7.47;;
11414;SDS011;5763;42.714;23.244;2023-06-14T14:55:49;8.27;;;7.45;;
11414;SDS011;5763;42.714;23.244;2023-06-14T14:58:18;7.20;;;6.43;;
11414;SDS011;5763;42.714;23.244;2023-06-14T15:00:45;8.18;;;7.38;;
11414;SDS011;5763;42.714;23.244;2023-06-14T15:03:12;7.53;;;6.82;;
11414;SDS011;5763;42.714;23.244;2023-06-14T15:05:38;7.15;;;6.43;;
11414;SDS011;5763;42.714;23.244;2023-06-14T15:08:06;7.43;;;6.70;;
11414;SDS011;5763;42.714;23.244;2023-06-14T15:10:36;6.22;;;5.63;;
11414;SDS011;5763;42.714;23.244;2023-06-14T15:13:05;6.65;;;6.03;;
11414;SDS011;5763;42.714;23.244;2023-06-14T15:15:34;8.10;;;6.25;;
11414;SDS011;5763;42.714;23.244;2023-06-14T15:18:01;6.63;;;5.95;;
11414;SDS011;5763;42.714;23.244;2023-06-14T15:20:28;6.68;;;5.78;;
11414;SDS011;5763;42.714;23.244;2023-06-14T15:22:55;6.55;;;5.88;;
11414;SDS011;5763;42.714;23.244;2023-06-14T15:25:24;5.45;;;4.95;;
11414;SDS011;5763;42.714;23.244;2023-06-14T15:27:52;6.18;;;5.68;;
11414;SDS011;5763;42.714;23.244;2023-06-14T15:30:18;7.47;;;6.10;;
11414;SDS011;5763;42.714;23.244;2023-06-14T15:32:47;6.55;;;5.82;;
11414;SDS011;5763;42.714;23.244;2023-06-14T15:35:16;10.15;;;5.80;;